sensor_id;sensor_type;location;lat;lon;timestamp;P1;durP1;ratioP1;P2;durP2;ratioP2
39822;SDS011;25499;53.958;10.970;2022-09-09T06:12:36;50.80;;;27.50;;
39822;SDS011;25499;53.958;10.970;2022-09-09T06:15:01;48.55;;;27.13;;
39822;SDS011;25499;53.958;10.970;2022-09-09T06:17:27;46.75;;;27.05;;
39822;SDS011;25499;53.958;10.970;2022-09-09T06:19:52;40.97;;;25.63;;
39822;SDS011;25499;53.958;10.970;2022-09-09T06:22:18;43.45;;;25.08;;
39822;SDS011;25499;53.958;10.970;2022-09-09T06:24:44;41.03;;;23.23;;
39822;SDS011;25499;53.958;10.970;2022-09-09T06:27:09;36.97;;;24.17;;
39822;SDS011;25499;53.958;10.970;2022-09-09T06:29:35;35.65;;;23.48;;
39822;SDS011;25499;53.958;10.970;2022-09-09T06:32:01;35.95;;;23.55;;
39822;SDS011;25499;53.958;10.970;2022-09-09T06:34:28;32.03;;;21.63;;
39822;SDS011;25499;53.958;10.970;2022-09-09T06:36:53;31.92;;;21.67;;
39822;SDS011;25499;53.958;10.970;2022-09-09T06:39:19;30.63;;;21.98;;
39822;SDS011;25499;53.958;10.970;2022-09-09T06:41:44;33.15;;;21.13;;
39822;SDS011;25499;53.958;10.970;2022-09-09T06:44:10;30.52;;;20.20;;
39822;SDS011;25499;53.958;10.970;2022-09-09T06:46:38;28.63;;;19.98;;
39822;SDS011;25499;53.958;10.970;2022-09-09T06:49:04;29.90;;;20.27;;
39822;SDS011;25499;53.958;10.970;2022-09-09T06:51:30;26.75;;;19.25;;
39822;SDS011;25499;53.958;10.970;2022-09-09T06:54:00;25.73;;;18.40;;
39822;SDS011;25499;53.958;10.970;2022-09-09T06:56:28;27.27;;;18.50;;
39822;SDS011;25499;53.958;10.970;2022-09-09T06:58:56;24.90;;;18.42;;
39822;SDS011;25499;53.958;10.970;2022-09-09T07:01:27;28.10;;;18.48;;
39822;SDS011;25499;53.958;10.970;2022-09-09T07:03:55;24.73;;;18.55;;
39822;SDS011;25499;53.958;10.970;2022-09-09T07:06:32;25.27;;;18.17;;
39822;SDS011;25499;53.958;10.970;2022-09-09T07:09:03;24.15;;;17.13;;
39822;SDS011;25499;53.958;10.970;2022-09-09T07:11:37;21.65;;;16.80;;
39822;SDS011;25499;53.958;10.970;2022-09-09T07:14:13;21.87;;;16.30;;
39822;SDS011;25499;53.958;10.970;2022-09-09T07:16:40;18.77;;;14.70;;
39822;SDS011;25499;53.958;10.970;2022-09-09T07:19:10;20.80;;;15.55;;
39822;SDS011;25499;53.958;10.970;2022-09-09T07:21:36;20.27;;;14.75;;
39822;SDS011;25499;53.958;10.970;2022-09-09T07:24:02;17.55;;;13.63;;
39822;SDS011;25499;53.958;10.970;2022-09-09T07:26:28;19.35;;;14.45;;
39822;SDS011;25499;53.958;10.970;2022-09-09T07:28:55;18.98;;;15.60;;
39822;SDS011;25499;53.958;10.970;2022-09-09T07:31:29;15.85;;;13.15;;
39822;SDS011;25499;53.958;10.970;2022-09-09T07:33:56;16.33;;;13.02;;
39822;SDS011;25499;53.958;10.970;2022-09-09T07:36:23;18.00;;;12.57;;
39822;SDS011;25499;53.958;10.970;2022-09-09T07:38:58;15.43;;;12.73;;
39822;SDS011;25499;53.958;10.970;2022-09-09T07:41:35;16.45;;;12.57;;
39822;SDS011;25499;53.958;10.970;2022-09-09T07:44:03;16.13;;;12.13;;
39822;SDS011;25499;53.958;10.970;2022-09-09T07:46:31;14.60;;;12.00;;
39822;SDS011;25499;53.958;10.970;2022-09-09T07:48:57;13.88;;;11.30;;
39822;SDS011;25499;53.958;10.970;2022-09-09T07:51:28;11.38;;;9.80;;
39822;SDS011;25499;53.958;10.970;2022-09-09T07:53:57;12.50;;;9.95;;
39822;SDS011;25499;53.958;10.970;2022-09-09T07:56:25;12.25;;;9.23;;
39822;SDS011;25499;53.958;10.970;2022-09-09T07:58:52;11.43;;;9.13;;
39822;SDS011;25499;53.958;10.970;2022-09-09T08:01:29;9.32;;;8.30;;
39822;SDS011;25499;53.958;10.970;2022-09-09T08:03:58;9.73;;;8.45;;
39822;SDS011;25499;53.958;10.970;2022-09-09T08:06:26;10.05;;;8.13;;
39822;SDS011;25499;53.958;10.970;2022-09-09T08:08:53;8.65;;;7.35;;
39822;SDS011;25499;53.958;10.970;2022-09-09T08:11:21;7.90;;;7.10;;
39822;SDS011;25499;53.958;10.970;2022-09-09T08:13:49;7.60;;;6.72;;
39822;SDS011;25499;53.958;10.970;2022-09-09T08:16:20;8.35;;;7.43;;
39822;SDS011;25499;53.958;10.970;2022-09-09T08:18:51;7.30;;;5.60;;
39822;SDS011;25499;53.958;10.970;2022-09-09T08:21:18;8.30;;;5.68;;
39822;SDS011;25499;53.958;10.970;2022-09-09T08:23:46;9.15;;;5.68;;
39822;SDS011;25499;53.958;10.970;2022-09-09T08:28:39;7.07;;;5.53;;
39822;SDS011;25499;53.958;10.970;2022-09-09T08:31:16;6.20;;;5.60;;
39822;SDS011;25499;53.958;10.970;2022-09-09T08:33:46;8.45;;;5.00;;
39822;SDS011;25499;53.958;10.970;2022-09-09T08:36:13;5.43;;;4.63;;
39822;SDS011;25499;53.958;10.970;2022-09-09T08:38:41;6.15;;;4.97;;
39822;SDS011;25499;53.958;10.970;2022-09-09T08:49:31;5.63;;;4.65;;
39822;SDS011;25499;53.958;10.970;2022-09-09T08:54:52;5.13;;;4.35;;
39822;SDS011;25499;53.958;10.970;2022-09-09T08:57:21;5.15;;;4.65;;
39822;SDS011;25499;53.958;10.970;2022-09-09T08:59:51;5.93;;;5.18;;
39822;SDS011;25499;53.958;10.970;2022-09-09T09:05:17;5.38;;;4.40;;
39822;SDS011;25499;53.958;10.970;2022-09-09T09:10:25;5.57;;;4.47;;
39822;SDS011;25499;53.958;10.970;2022-09-09T09:13:04;6.32;;;4.43;;
39822;SDS011;25499;53.958;10.970;2022-09-09T09:15:37;6.07;;;4.43;;
39822;SDS011;25499;53.958;10.970;2022-09-09T09:18:03;5.25;;;4.32;;
39822;SDS011;25499;53.958;10.970;2022-09-09T11:06:44;3.15;;;1.90;;
39822;SDS011;25499;53.958;10.970;2022-09-09T11:09:18;4.05;;;2.22;;
39822;SDS011;25499;53.958;10.970;2022-09-09T11:11:55;2.45;;;1.55;;
39822;SDS011;25499;53.958;10.970;2022-09-09T11:14:26;2.78;;;1.10;;
39822;SDS011;25499;53.958;10.970;2022-09-09T11:16:59;1.95;;;0.95;;
39822;SDS011;25499;53.958;10.970;2022-09-09T11:19:33;2.63;;;1.10;;
39822;SDS011;25499;53.958;10.970;2022-09-09T11:22:17;0.85;;;0.65;;
39822;SDS011;25499;53.958;10.970;2022-09-09T11:25:13;3.03;;;0.90;;
39822;SDS011;25499;53.958;10.970;2022-09-09T11:33:08;1.92;;;0.80;;
39822;SDS011;25499;53.958;10.970;2022-09-09T11:35:55;0.98;;;0.70;;
39822;SDS011;25499;53.958;10.970;2022-09-09T11:38:52;1.73;;;0.75;;
39822;SDS011;25499;53.958;10.970;2022-09-09T11:41:23;3.97;;;0.73;;
39822;SDS011;25499;53.958;10.970;2022-09-09T11:43:59;1.65;;;0.45;;
39822;SDS011;25499;53.958;10.970;2022-09-09T11:46:32;1.23;;;0.50;;
39822;SDS011;25499;53.958;10.970;2022-09-09T11:49:04;1.83;;;0.30;;
39822;SDS011;25499;53.958;10.970;2022-09-09T11:51:31;1.48;;;0.40;;
39822;SDS011;25499;53.958;10.970;2022-09-09T11:53:59;1.35;;;0.60;;
39822;SDS011;25499;53.958;10.970;2022-09-09T11:56:34;0.95;;;0.50;;
39822;SDS011;25499;53.958;10.970;2022-09-09T11:59:49;0.93;;;0.40;;
39822;SDS011;25499;53.958;10.970;2022-09-09T12:07:49;0.90;;;0.32;;
39822;SDS011;25499;53.958;10.970;2022-09-09T12:13:07;1.52;;;0.52;;
39822;SDS011;25499;53.958;10.970;2022-09-09T12:15:51;3.38;;;0.38;;
39822;SDS011;25499;53.958;10.970;2022-09-09T12:18:25;1.45;;;0.50;;
39822;SDS011;25499;53.958;10.970;2022-09-09T12:21:14;1.60;;;0.40;;
39822;SDS011;25499;53.958;10.970;2022-09-09T12:24:40;0.98;;;0.30;;
39822;SDS011;25499;53.958;10.970;2022-09-09T12:27:15;1.55;;;0.50;;
39822;SDS011;25499;53.958;10.970;2022-09-09T12:29:48;0.50;;;0.30;;
39822;SDS011;25499;53.958;10.970;2022-09-09T12:32:22;0.63;;;0.32;;
39822;SDS011;25499;53.958;10.970;2022-09-09T12:34:54;1.00;;;0.50;;
39822;SDS011;25499;53.958;10.970;2022-09-09T12:37:27;2.35;;;0.38;;
39822;SDS011;25499;53.958;10.970;2022-09-09T12:40:06;0.68;;;0.38;;
39822;SDS011;25499;53.958;10.970;2022-09-09T12:43:01;1.67;;;0.38;;
39822;SDS011;25499;53.958;10.970;2022-09-09T12:48:07;0.75;;;0.38;;
39822;SDS011;25499;53.958;10.970;2022-09-09T12:50:57;0.80;;;0.40;;
39822;SDS011;25499;53.958;10.970;2022-09-09T12:55:52;1.30;;;0.30;;
39822;SDS011;25499;53.958;10.970;2022-09-09T12:58:19;1.25;;;0.40;;
39822;SDS011;25499;53.958;10.970;2022-09-09T13:00:49;0.90;;;0.20;;
39822;SDS011;25499;53.958;10.970;2022-09-09T13:03:17;1.10;;;0.30;;
39822;SDS011;25499;53.958;10.970;2022-09-09T13:05:45;1.05;;;0.30;;
39822;SDS011;25499;53.958;10.970;2022-09-09T13:08:14;3.10;;;0.30;;
39822;SDS011;25499;53.958;10.970;2022-09-09T13:15:58;1.02;;;0.30;;
39822;SDS011;25499;53.958;10.970;2022-09-09T13:18:29;0.43;;;0.20;;
39822;SDS011;25499;53.958;10.970;2022-09-09T13:20:58;0.85;;;0.32;;
39822;SDS011;25499;53.958;10.970;2022-09-09T13:23:28;0.93;;;0.30;;
39822;SDS011;25499;53.958;10.970;2022-09-09T13:25:57;0.73;;;0.30;;
39822;SDS011;25499;53.958;10.970;2022-09-09T13:28:25;1.70;;;0.30;;
39822;SDS011;25499;53.958;10.970;2022-09-09T13:30:58;1.58;;;0.40;;
39822;SDS011;25499;53.958;10.970;2022-09-09T13:33:43;0.73;;;0.30;;
39822;SDS011;25499;53.958;10.970;2022-09-09T13:36:09;0.65;;;0.28;;
39822;SDS011;25499;53.958;10.970;2022-09-09T13:38:55;2.05;;;0.30;;
39822;SDS011;25499;53.958;10.970;2022-09-09T13:41:22;0.73;;;0.38;;
39822;SDS011;25499;53.958;10.970;2022-09-09T13:43:50;0.88;;;0.40;;
39822;SDS011;25499;53.958;10.970;2022-09-09T13:46:31;1.13;;;0.30;;
39822;SDS011;25499;53.958;10.970;2022-09-09T13:51:38;0.77;;;0.30;;
39822;SDS011;25499;53.958;10.970;2022-09-09T13:54:06;1.45;;;0.30;;
39822;SDS011;25499;53.958;10.970;2022-09-09T13:56:35;2.15;;;0.30;;
39822;SDS011;25499;53.958;10.970;2022-09-09T13:59:11;0.70;;;0.28;;
39822;SDS011;25499;53.958;10.970;2022-09-09T14:01:38;0.95;;;0.40;;
39822;SDS011;25499;53.958;10.970;2022-09-09T14:04:04;0.60;;;0.30;;
39822;SDS011;25499;53.958;10.970;2022-09-09T14:06:31;0.40;;;0.30;;
39822;SDS011;25499;53.958;10.970;2022-09-09T14:08:57;1.60;;;0.30;;
39822;SDS011;25499;53.958;10.970;2022-09-09T14:11:24;0.60;;;0.32;;
39822;SDS011;25499;53.958;10.970;2022-09-09T14:13:49;1.13;;;0.38;;
39822;SDS011;25499;53.958;10.970;2022-09-09T14:16:17;1.60;;;0.40;;
39822;SDS011;25499;53.958;10.970;2022-09-09T14:18:43;2.30;;;0.30;;
39822;SDS011;25499;53.958;10.970;2022-09-09T14:21:09;1.27;;;0.50;;
39822;SDS011;25499;53.958;10.970;2022-09-09T14:23:36;1.33;;;0.40;;
39822;SDS011;25499;53.958;10.970;2022-09-09T14:26:02;1.10;;;0.40;;
39822;SDS011;25499;53.958;10.970;2022-09-09T14:28:27;0.75;;;0.30;;
39822;SDS011;25499;53.958;10.970;2022-09-09T14:30:54;2.83;;;0.57;;
39822;SDS011;25499;53.958;10.970;2022-09-09T14:33:19;0.98;;;0.50;;
39822;SDS011;25499;53.958;10.970;2022-09-09T14:35:44;1.35;;;0.40;;
39822;SDS011;25499;53.958;10.970;2022-09-09T14:38:10;0.82;;;0.43;;
39822;SDS011;25499;53.958;10.970;2022-09-09T14:40:36;1.15;;;0.50;;
39822;SDS011;25499;53.958;10.970;2022-09-09T14:43:03;1.02;;;0.47;;
39822;SDS011;25499;53.958;10.970;2022-09-09T14:45:29;0.90;;;0.50;;
39822;SDS011;25499;53.958;10.970;2022-09-09T14:47:54;2.20;;;0.80;;
39822;SDS011;25499;53.958;10.970;2022-09-09T14:50:20;1.38;;;0.60;;
39822;SDS011;25499;53.958;10.970;2022-09-09T14:52:46;1.27;;;0.70;;
39822;SDS011;25499;53.958;10.970;2022-09-09T14:55:12;1.58;;;0.65;;
39822;SDS011;25499;53.958;10.970;2022-09-09T14:57:37;0.90;;;0.60;;
39822;SDS011;25499;53.958;10.970;2022-09-09T15:00:04;2.03;;;0.80;;
39822;SDS011;25499;53.958;10.970;2022-09-09T15:02:30;2.30;;;0.60;;
39822;SDS011;25499;53.958;10.970;2022-09-09T15:04:56;2.10;;;1.25;;
39822;SDS011;25499;53.958;10.970;2022-09-09T15:07:23;3.97;;;1.02;;
39822;SDS011;25499;53.958;10.970;2022-09-09T15:09:48;4.00;;;1.00;;
39822;SDS011;25499;53.958;10.970;2022-09-09T15:12:14;7.13;;;1.25;;
39822;SDS011;25499;53.958;10.970;2022-09-09T15:14:40;2.00;;;1.13;;
39822;SDS011;25499;53.958;10.970;2022-09-09T15:17:05;2.30;;;1.08;;
39822;SDS011;25499;53.958;10.970;2022-09-09T15:19:30;1.17;;;0.50;;
39822;SDS011;25499;53.958;10.970;2022-09-09T15:21:57;1.52;;;0.65;;
39822;SDS011;25499;53.958;10.970;2022-09-09T15:24:24;1.02;;;0.50;;
39822;SDS011;25499;53.958;10.970;2022-09-09T15:26:50;1.38;;;0.57;;
39822;SDS011;25499;53.958;10.970;2022-09-09T15:29:16;0.77;;;0.40;;
39822;SDS011;25499;53.958;10.970;2022-09-09T15:31:41;1.98;;;0.40;;
39822;SDS011;25499;53.958;10.970;2022-09-09T15:34:06;1.15;;;0.60;;
39822;SDS011;25499;53.958;10.970;2022-09-09T15:36:33;1.10;;;0.47;;
39822;SDS011;25499;53.958;10.970;2022-09-09T15:39:02;0.98;;;0.50;;
39822;SDS011;25499;53.958;10.970;2022-09-09T15:41:28;0.77;;;0.38;;
39822;SDS011;25499;53.958;10.970;2022-09-09T15:43:56;2.63;;;0.43;;
39822;SDS011;25499;53.958;10.970;2022-09-09T15:46:24;0.65;;;0.30;;
39822;SDS011;25499;53.958;10.970;2022-09-09T15:49:16;0.82;;;0.40;;
39822;SDS011;25499;53.958;10.970;2022-09-09T15:51:47;0.40;;;0.20;;
39822;SDS011;25499;53.958;10.970;2022-09-09T15:54:17;0.95;;;0.30;;
39822;SDS011;25499;53.958;10.970;2022-09-09T15:56:45;1.05;;;0.43;;
39822;SDS011;25499;53.958;10.970;2022-09-09T15:59:14;0.30;;;0.30;;
39822;SDS011;25499;53.958;10.970;2022-09-09T16:01:41;0.93;;;0.40;;
39822;SDS011;25499;53.958;10.970;2022-09-09T16:04:07;0.50;;;0.30;;
39822;SDS011;25499;53.958;10.970;2022-09-09T16:06:32;0.20;;;0.10;;
39822;SDS011;25499;53.958;10.970;2022-09-09T16:08:58;1.15;;;0.20;;
39822;SDS011;25499;53.958;10.970;2022-09-09T16:11:27;1.20;;;0.20;;
39822;SDS011;25499;53.958;10.970;2022-09-09T16:13:54;0.82;;;0.20;;
39822;SDS011;25499;53.958;10.970;2022-09-09T16:16:21;1.33;;;0.30;;
39822;SDS011;25499;53.958;10.970;2022-09-09T16:18:52;0.20;;;0.10;;
39822;SDS011;25499;53.958;10.970;2022-09-09T16:21:24;0.73;;;0.22;;
39822;SDS011;25499;53.958;10.970;2022-09-09T16:23:54;0.90;;;0.20;;
39822;SDS011;25499;53.958;10.970;2022-09-09T16:26:21;0.73;;;0.35;;
39822;SDS011;25499;53.958;10.970;2022-09-09T16:28:47;0.73;;;0.20;;
39822;SDS011;25499;53.958;10.970;2022-09-09T16:31:13;0.63;;;0.20;;
39822;SDS011;25499;53.958;10.970;2022-09-09T16:33:43;1.02;;;0.30;;
39822;SDS011;25499;53.958;10.970;2022-09-09T16:36:10;0.20;;;0.20;;
39822;SDS011;25499;53.958;10.970;2022-09-09T16:38:37;2.42;;;0.50;;
39822;SDS011;25499;53.958;10.970;2022-09-09T16:41:04;0.52;;;0.40;;
39822;SDS011;25499;53.958;10.970;2022-09-09T16:43:30;2.47;;;0.60;;
39822;SDS011;25499;53.958;10.970;2022-09-09T16:45:56;0.70;;;0.50;;
39822;SDS011;25499;53.958;10.970;2022-09-09T16:48:22;1.10;;;0.40;;
39822;SDS011;25499;53.958;10.970;2022-09-09T16:50:47;2.15;;;0.57;;
39822;SDS011;25499;53.958;10.970;2022-09-09T16:53:13;0.88;;;0.40;;
39822;SDS011;25499;53.958;10.970;2022-09-09T16:55:40;1.42;;;0.52;;
39822;SDS011;25499;53.958;10.970;2022-09-09T16:58:06;0.70;;;0.63;;
39822;SDS011;25499;53.958;10.970;2022-09-09T17:00:33;1.52;;;0.50;;
39822;SDS011;25499;53.958;10.970;2022-09-09T17:02:59;1.75;;;0.50;;
39822;SDS011;25499;53.958;10.970;2022-09-09T17:05:24;1.25;;;0.70;;
39822;SDS011;25499;53.958;10.970;2022-09-09T17:07:50;1.58;;;0.63;;
39822;SDS011;25499;53.958;10.970;2022-09-09T17:10:16;1.77;;;0.70;;
39822;SDS011;25499;53.958;10.970;2022-09-09T17:12:41;0.80;;;0.50;;
39822;SDS011;25499;53.958;10.970;2022-09-09T17:15:06;1.15;;;0.55;;
39822;SDS011;25499;53.958;10.970;2022-09-09T17:17:32;1.88;;;0.77;;
39822;SDS011;25499;53.958;10.970;2022-09-09T17:19:57;0.82;;;0.63;;
39822;SDS011;25499;53.958;10.970;2022-09-09T17:22:23;2.08;;;0.80;;
39822;SDS011;25499;53.958;10.970;2022-09-09T17:24:48;2.08;;;0.70;;
39822;SDS011;25499;53.958;10.970;2022-09-09T17:27:13;3.63;;;0.90;;
39822;SDS011;25499;53.958;10.970;2022-09-09T17:29:39;1.85;;;0.77;;
39822;SDS011;25499;53.958;10.970;2022-09-09T17:32:05;1.95;;;0.88;;
39822;SDS011;25499;53.958;10.970;2022-09-09T17:34:32;1.25;;;0.70;;
39822;SDS011;25499;53.958;10.970;2022-09-09T17:36:58;1.23;;;0.70;;
39822;SDS011;25499;53.958;10.970;2022-09-09T17:39:23;0.80;;;0.80;;
39822;SDS011;25499;53.958;10.970;2022-09-09T17:41:49;1.67;;;1.10;;
39822;SDS011;25499;53.958;10.970;2022-09-09T17:44:15;1.77;;;0.90;;
39822;SDS011;25499;53.958;10.970;2022-09-09T17:46:41;3.28;;;0.90;;
39822;SDS011;25499;53.958;10.970;2022-09-09T17:49:14;1.80;;;1.10;;
39822;SDS011;25499;53.958;10.970;2022-09-09T17:51:42;2.20;;;1.20;;
39822;SDS011;25499;53.958;10.970;2022-09-09T17:54:15;2.15;;;1.40;;
39822;SDS011;25499;53.958;10.970;2022-09-09T17:56:43;2.30;;;1.48;;
39822;SDS011;25499;53.958;10.970;2022-09-09T17:59:10;3.90;;;1.40;;
39822;SDS011;25499;53.958;10.970;2022-09-09T18:01:38;3.13;;;1.20;;
39822;SDS011;25499;53.958;10.970;2022-09-09T18:04:05;4.07;;;1.52;;
39822;SDS011;25499;53.958;10.970;2022-09-09T18:06:33;2.20;;;1.50;;
39822;SDS011;25499;53.958;10.970;2022-09-09T18:09:04;2.90;;;1.80;;
39822;SDS011;25499;53.958;10.970;2022-09-09T18:11:33;3.28;;;1.70;;
39822;SDS011;25499;53.958;10.970;2022-09-09T18:14:03;3.80;;;1.50;;
39822;SDS011;25499;53.958;10.970;2022-09-09T18:16:31;2.88;;;1.50;;
39822;SDS011;25499;53.958;10.970;2022-09-09T18:21:27;1.85;;;1.35;;
39822;SDS011;25499;53.958;10.970;2022-09-09T18:23:57;2.05;;;1.20;;
39822;SDS011;25499;53.958;10.970;2022-09-09T18:26:27;1.23;;;1.02;;
39822;SDS011;25499;53.958;10.970;2022-09-09T18:28:54;2.95;;;1.30;;
39822;SDS011;25499;53.958;10.970;2022-09-09T18:31:21;2.50;;;1.30;;
39822;SDS011;25499;53.958;10.970;2022-09-09T18:33:48;3.28;;;1.30;;
39822;SDS011;25499;53.958;10.970;2022-09-09T18:36:19;1.92;;;1.23;;
39822;SDS011;25499;53.958;10.970;2022-09-09T18:38:47;1.15;;;0.90;;
39822;SDS011;25499;53.958;10.970;2022-09-09T18:41:17;1.55;;;0.85;;
39822;SDS011;25499;53.958;10.970;2022-09-09T18:43:52;1.45;;;0.90;;
39822;SDS011;25499;53.958;10.970;2022-09-09T18:46:22;2.55;;;1.10;;
39822;SDS011;25499;53.958;10.970;2022-09-09T18:48:48;1.90;;;0.90;;
39822;SDS011;25499;53.958;10.970;2022-09-09T18:51:15;1.85;;;1.17;;
39822;SDS011;25499;53.958;10.970;2022-09-09T18:53:48;3.88;;;1.40;;
39822;SDS011;25499;53.958;10.970;2022-09-09T18:56:14;1.20;;;1.10;;
39822;SDS011;25499;53.958;10.970;2022-09-09T18:58:39;2.35;;;1.10;;
39822;SDS011;25499;53.958;10.970;2022-09-09T19:01:10;2.05;;;1.00;;
39822;SDS011;25499;53.958;10.970;2022-09-09T19:03:37;1.33;;;1.10;;
39822;SDS011;25499;53.958;10.970;2022-09-09T19:06:05;2.97;;;1.00;;
39822;SDS011;25499;53.958;10.970;2022-09-09T19:08:33;0.83;;;0.80;;
39822;SDS011;25499;53.958;10.970;2022-09-09T19:11:01;2.17;;;1.00;;
39822;SDS011;25499;53.958;10.970;2022-09-09T19:13:31;2.53;;;1.00;;
39822;SDS011;25499;53.958;10.970;2022-09-09T19:16:07;2.08;;;1.00;;
39822;SDS011;25499;53.958;10.970;2022-09-09T19:18:37;1.83;;;1.00;;
39822;SDS011;25499;53.958;10.970;2022-09-09T19:21:17;2.70;;;1.02;;
39822;SDS011;25499;53.958;10.970;2022-09-09T19:23:43;1.48;;;1.23;;
39822;SDS011;25499;53.958;10.970;2022-09-09T19:26:09;2.25;;;1.10;;
39822;SDS011;25499;53.958;10.970;2022-09-09T19:28:35;1.70;;;1.48;;
39822;SDS011;25499;53.958;10.970;2022-09-09T19:31:05;1.75;;;1.02;;
39822;SDS011;25499;53.958;10.970;2022-09-09T19:33:32;1.27;;;1.10;;
39822;SDS011;25499;53.958;10.970;2022-09-09T19:36:22;1.23;;;1.10;;
39822;SDS011;25499;53.958;10.970;2022-09-09T19:38:48;2.33;;;1.30;;
39822;SDS011;25499;53.958;10.970;2022-09-09T19:41:16;2.90;;;1.10;;
39822;SDS011;25499;53.958;10.970;2022-09-09T19:43:43;1.85;;;1.25;;
39822;SDS011;25499;53.958;10.970;2022-09-09T19:46:09;1.98;;;1.20;;
39822;SDS011;25499;53.958;10.970;2022-09-09T19:48:36;2.20;;;1.13;;
39822;SDS011;25499;53.958;10.970;2022-09-09T19:51:05;2.40;;;1.20;;
39822;SDS011;25499;53.958;10.970;2022-09-09T19:53:34;1.55;;;1.30;;
39822;SDS011;25499;53.958;10.970;2022-09-09T19:56:01;2.20;;;2.00;;
39822;SDS011;25499;53.958;10.970;2022-09-09T19:58:28;3.28;;;2.38;;
39822;SDS011;25499;53.958;10.970;2022-09-09T20:01:03;3.55;;;3.08;;
39822;SDS011;25499;53.958;10.970;2022-09-09T20:03:29;5.22;;;2.90;;
39822;SDS011;25499;53.958;10.970;2022-09-09T20:05:55;5.05;;;3.03;;
39822;SDS011;25499;53.958;10.970;2022-09-09T20:08:21;2.92;;;2.33;;
39822;SDS011;25499;53.958;10.970;2022-09-09T20:10:50;2.15;;;1.95;;
39822;SDS011;25499;53.958;10.970;2022-09-09T20:13:17;3.90;;;1.73;;
39822;SDS011;25499;53.958;10.970;2022-09-09T20:15:42;2.67;;;1.63;;
39822;SDS011;25499;53.958;10.970;2022-09-09T20:18:07;2.40;;;1.40;;
39822;SDS011;25499;53.958;10.970;2022-09-09T20:20:32;2.92;;;1.83;;
39822;SDS011;25499;53.958;10.970;2022-09-09T20:22:58;4.53;;;1.70;;
39822;SDS011;25499;53.958;10.970;2022-09-09T20:25:23;2.15;;;1.70;;
39822;SDS011;25499;53.958;10.970;2022-09-09T20:27:49;1.70;;;1.58;;
39822;SDS011;25499;53.958;10.970;2022-09-09T20:30:14;3.95;;;1.60;;
39822;SDS011;25499;53.958;10.970;2022-09-09T20:32:39;2.45;;;1.52;;
39822;SDS011;25499;53.958;10.970;2022-09-09T20:35:06;2.17;;;1.75;;
39822;SDS011;25499;53.958;10.970;2022-09-09T20:37:32;2.58;;;1.83;;
39822;SDS011;25499;53.958;10.970;2022-09-09T20:39:57;4.68;;;1.75;;
39822;SDS011;25499;53.958;10.970;2022-09-09T20:42:25;4.38;;;3.30;;
39822;SDS011;25499;53.958;10.970;2022-09-09T20:44:51;6.10;;;2.00;;
39822;SDS011;25499;53.958;10.970;2022-09-09T20:47:16;3.80;;;1.80;;
39822;SDS011;25499;53.958;10.970;2022-09-09T20:49:41;4.55;;;1.70;;
39822;SDS011;25499;53.958;10.970;2022-09-09T20:52:08;1.90;;;1.30;;
39822;SDS011;25499;53.958;10.970;2022-09-09T20:54:35;1.75;;;1.20;;
39822;SDS011;25499;53.958;10.970;2022-09-09T20:57:01;3.60;;;1.50;;
39822;SDS011;25499;53.958;10.970;2022-09-09T20:59:27;1.95;;;1.60;;
39822;SDS011;25499;53.958;10.970;2022-09-09T21:01:54;1.75;;;1.52;;
39822;SDS011;25499;53.958;10.970;2022-09-09T21:04:20;1.95;;;1.30;;
39822;SDS011;25499;53.958;10.970;2022-09-09T21:06:47;2.90;;;1.90;;
39822;SDS011;25499;53.958;10.970;2022-09-09T21:09:14;2.28;;;1.40;;
39822;SDS011;25499;53.958;10.970;2022-09-09T21:11:39;2.67;;;1.52;;
39822;SDS011;25499;53.958;10.970;2022-09-09T21:14:05;2.47;;;1.38;;
39822;SDS011;25499;53.958;10.970;2022-09-09T21:16:31;2.00;;;1.33;;
39822;SDS011;25499;53.958;10.970;2022-09-09T21:18:57;4.07;;;1.55;;
39822;SDS011;25499;53.958;10.970;2022-09-09T21:21:23;2.17;;;1.15;;
39822;SDS011;25499;53.958;10.970;2022-09-09T21:23:54;5.35;;;1.58;;
39822;SDS011;25499;53.958;10.970;2022-09-09T21:26:21;2.35;;;1.48;;
